sensor_id;sensor_type;location;lat;lon;timestamp;temperature;humidity
16867;DHT22;8550;52.596;13.320;2024-03-22T00:00:25;8.40;99.90
16867;DHT22;8550;52.596;13.320;2024-03-22T00:05:26;8.40;99.90
16867;DHT22;8550;52.596;13.320;2024-03-22T00:10:26;8.50;99.90
16867;DHT22;8550;52.596;13.320;2024-03-22T00:15:27;8.50;99.90
16867;DHT22;8550;52.596;13.320;2024-03-22T00:20:28;8.40;99.90
16867;DHT22;8550;52.596;13.320;2024-03-22T00:25:28;8.30;99.90
16867;DHT22;8550;52.596;13.320;2024-03-22T00:30:30;8.40;99.90
16867;DHT22;8550;52.596;13.320;2024-03-22T00:35:30;8.40;99.90
16867;DHT22;8550;52.596;13.320;2024-03-22T00:40:31;8.50;99.90
16867;DHT22;8550;52.596;13.320;2024-03-22T00:45:32;8.50;99.90
16867;DHT22;8550;52.596;13.320;2024-03-22T00:50:33;8.40;99.90
16867;DHT22;8550;52.596;13.320;2024-03-22T00:55:34;8.40;99.90
16867;DHT22;8550;52.596;13.320;2024-03-22T01:00:34;8.50;99.90
16867;DHT22;8550;52.596;13.320;2024-03-22T01:05:37;8.50;99.90
16867;DHT22;8550;52.596;13.320;2024-03-22T01:10:37;8.30;99.90
16867;DHT22;8550;52.596;13.320;2024-03-22T01:15:38;8.30;99.90
16867;DHT22;8550;52.596;13.320;2024-03-22T01:20:39;8.40;99.90
16867;DHT22;8550;52.596;13.320;2024-03-22T01:25:40;8.50;99.90
16867;DHT22;8550;52.596;13.320;2024-03-22T01:30:42;8.40;99.90
16867;DHT22;8550;52.596;13.320;2024-03-22T01:35:44;8.50;99.90
16867;DHT22;8550;52.596;13.320;2024-03-22T01:40:46;8.50;99.90
16867;DHT22;8550;52.596;13.320;2024-03-22T01:45:46;8.40;99.90
16867;DHT22;8550;52.596;13.320;2024-03-22T01:50:47;8.50;99.90
16867;DHT22;8550;52.596;13.320;2024-03-22T01:55:55;8.50;99.90
16867;DHT22;8550;52.596;13.320;2024-03-22T02:00:55;8.50;99.90
16867;DHT22;8550;52.596;13.320;2024-03-22T02:05:56;8.50;99.90
16867;DHT22;8550;52.596;13.320;2024-03-22T02:10:57;8.50;99.90
16867;DHT22;8550;52.596;13.320;2024-03-22T02:15:58;8.50;99.90
16867;DHT22;8550;52.596;13.320;2024-03-22T02:20:58;8.50;99.90
16867;DHT22;8550;52.596;13.320;2024-03-22T02:26:00;8.50;99.90
16867;DHT22;8550;52.596;13.320;2024-03-22T02:31:05;8.60;99.90
16867;DHT22;8550;52.596;13.320;2024-03-22T02:36:06;8.60;99.90
16867;DHT22;8550;52.596;13.320;2024-03-22T02:41:07;8.60;99.90
16867;DHT22;8550;52.596;13.320;2024-03-22T02:46:08;8.60;99.90
16867;DHT22;8550;52.596;13.320;2024-03-22T02:51:09;8.60;99.90
16867;DHT22;8550;52.596;13.320;2024-03-22T02:56:11;8.60;99.90
16867;DHT22;8550;52.596;13.320;2024-03-22T03:01:11;8.60;99.90
16867;DHT22;8550;52.596;13.320;2024-03-22T03:06:12;8.60;99.90
16867;DHT22;8550;52.596;13.320;2024-03-22T03:11:17;8.60;99.90
16867;DHT22;8550;52.596;13.320;2024-03-22T03:16:19;8.60;99.90
16867;DHT22;8550;52.596;13.320;2024-03-22T03:21:19;8.60;99.90
16867;DHT22;8550;52.596;13.320;2024-03-22T03:26:20;8.60;99.90
16867;DHT22;8550;52.596;13.320;2024-03-22T03:31:21;8.60;99.90
16867;DHT22;8550;52.596;13.320;2024-03-22T03:36:21;8.50;99.90
16867;DHT22;8550;52.596;13.320;2024-03-22T03:41:22;8.50;99.90
16867;DHT22;8550;52.596;13.320;2024-03-22T03:46:22;8.50;99.90
16867;DHT22;8550;52.596;13.320;2024-03-22T03:51:23;8.60;99.90
16867;DHT22;8550;52.596;13.320;2024-03-22T03:56:24;8.60;99.90
16867;DHT22;8550;52.596;13.320;2024-03-22T04:01:25;8.60;99.90
16867;DHT22;8550;52.596;13.320;2024-03-22T04:06:25;8.60;99.90
16867;DHT22;8550;52.596;13.320;2024-03-22T04:11:26;8.60;99.90
16867;DHT22;8550;52.596;13.320;2024-03-22T04:16:26;8.50;99.90
16867;DHT22;8550;52.596;13.320;2024-03-22T04:21:27;8.50;99.90
16867;DHT22;8550;52.596;13.320;2024-03-22T04:26:28;8.50;99.90
16867;DHT22;8550;52.596;13.320;2024-03-22T04:31:29;8.60;99.90
16867;DHT22;8550;52.596;13.320;2024-03-22T04:36:29;8.70;99.90
16867;DHT22;8550;52.596;13.320;2024-03-22T04:41:30;8.70;99.90
16867;DHT22;8550;52.596;13.320;2024-03-22T04:46:30;8.60;99.90
16867;DHT22;8550;52.596;13.320;2024-03-22T04:51:31;8.70;99.90
16867;DHT22;8550;52.596;13.320;2024-03-22T04:56:31;8.70;99.90
16867;DHT22;8550;52.596;13.320;2024-03-22T05:01:32;8.80;99.90
16867;DHT22;8550;52.596;13.320;2024-03-22T05:06:33;8.80;99.90
16867;DHT22;8550;52.596;13.320;2024-03-22T05:11:33;8.70;99.90
16867;DHT22;8550;52.596;13.320;2024-03-22T05:16:34;8.70;99.90
16867;DHT22;8550;52.596;13.320;2024-03-22T05:21:35;8.80;99.90
16867;DHT22;8550;52.596;13.320;2024-03-22T05:26:36;8.80;99.90
16867;DHT22;8550;52.596;13.320;2024-03-22T05:31:47;8.90;99.90
16867;DHT22;8550;52.596;13.320;2024-03-22T05:36:48;8.90;99.90
16867;DHT22;8550;52.596;13.320;2024-03-22T05:41:49;9.00;99.90
16867;DHT22;8550;52.596;13.320;2024-03-22T05:46:50;9.10;99.90
16867;DHT22;8550;52.596;13.320;2024-03-22T05:51:50;9.10;99.90
16867;DHT22;8550;52.596;13.320;2024-03-22T05:56:51;9.30;99.90
16867;DHT22;8550;52.596;13.320;2024-03-22T06:01:52;9.30;99.90
16867;DHT22;8550;52.596;13.320;2024-03-22T06:06:52;9.50;99.90
16867;DHT22;8550;52.596;13.320;2024-03-22T06:11:53;9.50;99.90
16867;DHT22;8550;52.596;13.320;2024-03-22T06:16:53;9.50;99.90
16867;DHT22;8550;52.596;13.320;2024-03-22T06:21:54;9.60;99.90
16867;DHT22;8550;52.596;13.320;2024-03-22T06:26:55;9.60;99.90
16867;DHT22;8550;52.596;13.320;2024-03-22T06:31:58;9.50;99.90
16867;DHT22;8550;52.596;13.320;2024-03-22T06:36:59;9.50;99.90
16867;DHT22;8550;52.596;13.320;2024-03-22T06:42:00;9.60;99.90
16867;DHT22;8550;52.596;13.320;2024-03-22T06:47:01;9.60;99.90
16867;DHT22;8550;52.596;13.320;2024-03-22T06:52:02;9.70;99.90
16867;DHT22;8550;52.596;13.320;2024-03-22T06:57:03;9.80;99.90
16867;DHT22;8550;52.596;13.320;2024-03-22T07:02:04;10.00;99.90
16867;DHT22;8550;52.596;13.320;2024-03-22T07:07:04;10.10;99.90
16867;DHT22;8550;52.596;13.320;2024-03-22T07:12:11;10.10;99.90
16867;DHT22;8550;52.596;13.320;2024-03-22T07:17:11;10.20;99.90
16867;DHT22;8550;52.596;13.320;2024-03-22T07:22:12;10.20;99.90
16867;DHT22;8550;52.596;13.320;2024-03-22T07:27:13;10.20;99.90
16867;DHT22;8550;52.596;13.320;2024-03-22T07:32:17;10.20;99.90
16867;DHT22;8550;52.596;13.320;2024-03-22T07:37:17;10.30;99.90
16867;DHT22;8550;52.596;13.320;2024-03-22T07:42:18;10.30;99.90
16867;DHT22;8550;52.596;13.320;2024-03-22T07:47:19;10.60;99.90
16867;DHT22;8550;52.596;13.320;2024-03-22T07:52:20;10.50;99.90
16867;DHT22;8550;52.596;13.320;2024-03-22T07:57:20;10.70;99.90
16867;DHT22;8550;52.596;13.320;2024-03-22T08:02:21;10.90;99.90
16867;DHT22;8550;52.596;13.320;2024-03-22T08:07:22;11.00;99.90
16867;DHT22;8550;52.596;13.320;2024-03-22T08:12:23;11.20;99.90
16867;DHT22;8550;52.596;13.320;2024-03-22T08:17:23;11.20;99.90
16867;DHT22;8550;52.596;13.320;2024-03-22T08:22:24;11.20;99.90
16867;DHT22;8550;52.596;13.320;2024-03-22T08:27:24;11.30;99.90
16867;DHT22;8550;52.596;13.320;2024-03-22T08:32:25;11.20;99.90
16867;DHT22;8550;52.596;13.320;2024-03-22T08:37:26;11.20;99.90
16867;DHT22;8550;52.596;13.320;2024-03-22T08:42:26;11.30;99.90
16867;DHT22;8550;52.596;13.320;2024-03-22T08:47:27;11.50;99.90
16867;DHT22;8550;52.596;13.320;2024-03-22T08:52:28;11.70;99.90
16867;DHT22;8550;52.596;13.320;2024-03-22T08:57:28;11.80;99.90
16867;DHT22;8550;52.596;13.320;2024-03-22T09:02:29;12.00;99.90
16867;DHT22;8550;52.596;13.320;2024-03-22T09:07:30;12.10;99.90
16867;DHT22;8550;52.596;13.320;2024-03-22T09:12:30;12.30;99.90
16867;DHT22;8550;52.596;13.320;2024-03-22T09:17:31;12.40;99.90
16867;DHT22;8550;52.596;13.320;2024-03-22T09:22:31;12.60;99.90
16867;DHT22;8550;52.596;13.320;2024-03-22T09:27:33;12.50;99.90
16867;DHT22;8550;52.596;13.320;2024-03-22T09:32:33;12.60;99.90
16867;DHT22;8550;52.596;13.320;2024-03-22T09:37:34;13.00;99.90
16867;DHT22;8550;52.596;13.320;2024-03-22T09:42:37;13.00;99.90
16867;DHT22;8550;52.596;13.320;2024-03-22T09:47:39;13.00;99.90
16867;DHT22;8550;52.596;13.320;2024-03-22T09:52:41;12.90;99.90
16867;DHT22;8550;52.596;13.320;2024-03-22T09:57:43;13.00;99.90
16867;DHT22;8550;52.596;13.320;2024-03-22T10:02:47;12.90;99.90
16867;DHT22;8550;52.596;13.320;2024-03-22T10:07:49;12.80;99.90
16867;DHT22;8550;52.596;13.320;2024-03-22T10:12:49;13.00;99.90
16867;DHT22;8550;52.596;13.320;2024-03-22T10:17:53;13.20;99.90
16867;DHT22;8550;52.596;13.320;2024-03-22T10:22:57;13.20;99.90
16867;DHT22;8550;52.596;13.320;2024-03-22T10:27:59;13.40;99.90
16867;DHT22;8550;52.596;13.320;2024-03-22T10:33:00;13.50;99.90
16867;DHT22;8550;52.596;13.320;2024-03-22T10:38:02;13.80;99.90
16867;DHT22;8550;52.596;13.320;2024-03-22T10:43:03;14.10;99.90
16867;DHT22;8550;52.596;13.320;2024-03-22T10:48:09;14.30;99.90
16867;DHT22;8550;52.596;13.320;2024-03-22T10:53:18;14.30;99.90
16867;DHT22;8550;52.596;13.320;2024-03-22T10:58:24;14.20;99.90
16867;DHT22;8550;52.596;13.320;2024-03-22T11:03:25;14.10;99.90
16867;DHT22;8550;52.596;13.320;2024-03-22T11:08:30;13.90;99.90
16867;DHT22;8550;52.596;13.320;2024-03-22T11:13:36;14.00;99.90
16867;DHT22;8550;52.596;13.320;2024-03-22T11:18:37;13.70;99.90
16867;DHT22;8550;52.596;13.320;2024-03-22T11:23:37;13.40;99.90
16867;DHT22;8550;52.596;13.320;2024-03-22T11:28:39;13.30;99.90
16867;DHT22;8550;52.596;13.320;2024-03-22T11:33:40;13.30;99.90
16867;DHT22;8550;52.596;13.320;2024-03-22T11:38:41;13.20;99.90
16867;DHT22;8550;52.596;13.320;2024-03-22T11:43:42;12.80;99.90
16867;DHT22;8550;52.596;13.320;2024-03-22T11:48:43;12.50;99.90
16867;DHT22;8550;52.596;13.320;2024-03-22T11:53:53;12.40;99.90
16867;DHT22;8550;52.596;13.320;2024-03-22T11:58:59;12.40;99.90
16867;DHT22;8550;52.596;13.320;2024-03-22T12:04:01;12.40;99.90
16867;DHT22;8550;52.596;13.320;2024-03-22T12:09:01;12.30;99.90
16867;DHT22;8550;52.596;13.320;2024-03-22T12:14:04;12.10;99.90
16867;DHT22;8550;52.596;13.320;2024-03-22T12:19:04;11.90;99.90
16867;DHT22;8550;52.596;13.320;2024-03-22T12:24:07;11.70;99.90
16867;DHT22;8550;52.596;13.320;2024-03-22T12:29:07;11.60;99.90
16867;DHT22;8550;52.596;13.320;2024-03-22T12:34:12;11.50;99.90
16867;DHT22;8550;52.596;13.320;2024-03-22T12:39:13;11.40;99.90
16867;DHT22;8550;52.596;13.320;2024-03-22T12:44:13;11.40;99.90
16867;DHT22;8550;52.596;13.320;2024-03-22T12:49:14;11.40;99.90
16867;DHT22;8550;52.596;13.320;2024-03-22T12:54:15;11.40;99.90
16867;DHT22;8550;52.596;13.320;2024-03-22T12:59:18;11.40;99.90
16867;DHT22;8550;52.596;13.320;2024-03-22T13:04:19;11.40;99.90
16867;DHT22;8550;52.596;13.320;2024-03-22T13:09:20;11.40;99.90
16867;DHT22;8550;52.596;13.320;2024-03-22T13:14:22;11.30;99.90
16867;DHT22;8550;52.596;13.320;2024-03-22T13:19:22;11.40;99.90
16867;DHT22;8550;52.596;13.320;2024-03-22T13:24:23;11.50;99.90
16867;DHT22;8550;52.596;13.320;2024-03-22T13:29:24;11.60;99.90
16867;DHT22;8550;52.596;13.320;2024-03-22T13:34:25;11.60;99.90
16867;DHT22;8550;52.596;13.320;2024-03-22T13:39:27;11.60;99.90
16867;DHT22;8550;52.596;13.320;2024-03-22T13:44:32;11.60;99.90
16867;DHT22;8550;52.596;13.320;2024-03-22T13:49:33;11.70;99.90
16867;DHT22;8550;52.596;13.320;2024-03-22T13:54:33;11.60;99.90
16867;DHT22;8550;52.596;13.320;2024-03-22T13:59:34;11.60;99.90
16867;DHT22;8550;52.596;13.320;2024-03-22T14:04:36;11.60;99.90
16867;DHT22;8550;52.596;13.320;2024-03-22T14:09:37;11.60;99.90
16867;DHT22;8550;52.596;13.320;2024-03-22T14:14:37;11.60;99.90
16867;DHT22;8550;52.596;13.320;2024-03-22T14:19:38;11.70;99.90
16867;DHT22;8550;52.596;13.320;2024-03-22T14:24:38;11.60;99.90
16867;DHT22;8550;52.596;13.320;2024-03-22T14:29:39;11.60;99.90
16867;DHT22;8550;52.596;13.320;2024-03-22T14:34:40;11.70;99.90
16867;DHT22;8550;52.596;13.320;2024-03-22T14:39:41;11.70;99.90
16867;DHT22;8550;52.596;13.320;2024-03-22T14:44:43;11.60;99.90
16867;DHT22;8550;52.596;13.320;2024-03-22T14:49:44;11.60;99.90
16867;DHT22;8550;52.596;13.320;2024-03-22T14:54:44;11.60;99.90
16867;DHT22;8550;52.596;13.320;2024-03-22T14:59:46;11.50;99.90
16867;DHT22;8550;52.596;13.320;2024-03-22T15:04:48;11.60;99.90
16867;DHT22;8550;52.596;13.320;2024-03-22T15:09:49;11.70;99.90
16867;DHT22;8550;52.596;13.320;2024-03-22T15:14:53;11.70;99.90
16867;DHT22;8550;52.596;13.320;2024-03-22T15:19:54;11.80;99.90
16867;DHT22;8550;52.596;13.320;2024-03-22T15:24:55;11.80;99.90
16867;DHT22;8550;52.596;13.320;2024-03-22T15:29:55;11.80;99.90
16867;DHT22;8550;52.596;13.320;2024-03-22T15:34:56;11.70;99.90
16867;DHT22;8550;52.596;13.320;2024-03-22T15:39:56;11.70;99.90
16867;DHT22;8550;52.596;13.320;2024-03-22T15:44:57;11.60;99.90
16867;DHT22;8550;52.596;13.320;2024-03-22T15:50:03;11.70;99.90
16867;DHT22;8550;52.596;13.320;2024-03-22T15:55:04;11.60;99.90
16867;DHT22;8550;52.596;13.320;2024-03-22T16:00:05;11.60;99.90
16867;DHT22;8550;52.596;13.320;2024-03-22T16:05:08;11.50;99.90
16867;DHT22;8550;52.596;13.320;2024-03-22T16:10:09;11.50;99.90
16867;DHT22;8550;52.596;13.320;2024-03-22T16:15:09;11.40;99.90
16867;DHT22;8550;52.596;13.320;2024-03-22T16:20:10;11.40;99.90
16867;DHT22;8550;52.596;13.320;2024-03-22T16:25:11;11.40;99.90
16867;DHT22;8550;52.596;13.320;2024-03-22T16:30:12;11.40;99.90
16867;DHT22;8550;52.596;13.320;2024-03-22T16:35:12;11.30;99.90
16867;DHT22;8550;52.596;13.320;2024-03-22T16:40:15;11.20;99.90
16867;DHT22;8550;52.596;13.320;2024-03-22T16:45:16;11.30;99.90
16867;DHT22;8550;52.596;13.320;2024-03-22T16:50:17;11.30;99.90
16867;DHT22;8550;52.596;13.320;2024-03-22T16:55:18;11.30;99.90
16867;DHT22;8550;52.596;13.320;2024-03-22T17:00:19;11.30;99.90
16867;DHT22;8550;52.596;13.320;2024-03-22T17:05:20;11.20;99.90
16867;DHT22;8550;52.596;13.320;2024-03-22T17:10:20;11.10;99.90
16867;DHT22;8550;52.596;13.320;2024-03-22T17:15:21;11.10;99.90
16867;DHT22;8550;52.596;13.320;2024-03-22T17:20:22;11.10;99.90
16867;DHT22;8550;52.596;13.320;2024-03-22T17:25:23;11.00;99.90
16867;DHT22;8550;52.596;13.320;2024-03-22T17:30:23;11.10;99.90
16867;DHT22;8550;52.596;13.320;2024-03-22T17:35:24;11.00;99.90
16867;DHT22;8550;52.596;13.320;2024-03-22T17:40:25;11.00;99.90
16867;DHT22;8550;52.596;13.320;2024-03-22T17:45:25;11.00;99.90
16867;DHT22;8550;52.596;13.320;2024-03-22T17:50:26;11.00;99.90
16867;DHT22;8550;52.596;13.320;2024-03-22T17:55:26;11.00;99.90
16867;DHT22;8550;52.596;13.320;2024-03-22T18:00:27;10.90;99.90
16867;DHT22;8550;52.596;13.320;2024-03-22T18:05:28;11.00;99.90
16867;DHT22;8550;52.596;13.320;2024-03-22T18:10:28;11.00;99.90
16867;DHT22;8550;52.596;13.320;2024-03-22T18:15:29;10.90;99.90
16867;DHT22;8550;52.596;13.320;2024-03-22T18:20:30;11.00;99.90
16867;DHT22;8550;52.596;13.320;2024-03-22T18:25:30;10.90;99.90
16867;DHT22;8550;52.596;13.320;2024-03-22T18:30:31;11.00;99.90
16867;DHT22;8550;52.596;13.320;2024-03-22T18:35:34;10.90;99.90
16867;DHT22;8550;52.596;13.320;2024-03-22T18:40:35;10.90;99.90
16867;DHT22;8550;52.596;13.320;2024-03-22T18:45:35;10.90;99.90
16867;DHT22;8550;52.596;13.320;2024-03-22T18:50:36;10.80;99.90
16867;DHT22;8550;52.596;13.320;2024-03-22T18:55:37;10.80;99.90
16867;DHT22;8550;52.596;13.320;2024-03-22T19:00:38;10.80;99.90
16867;DHT22;8550;52.596;13.320;2024-03-22T19:05:38;10.80;99.90
16867;DHT22;8550;52.596;13.320;2024-03-22T19:10:39;10.70;99.90
16867;DHT22;8550;52.596;13.320;2024-03-22T19:15:40;10.70;99.90
16867;DHT22;8550;52.596;13.320;2024-03-22T19:20:46;10.70;99.90
16867;DHT22;8550;52.596;13.320;2024-03-22T19:25:49;10.70;99.90
16867;DHT22;8550;52.596;13.320;2024-03-22T19:30:52;10.80;99.90
16867;DHT22;8550;52.596;13.320;2024-03-22T19:35:53;10.80;99.90
16867;DHT22;8550;52.596;13.320;2024-03-22T19:40:54;10.80;99.90
16867;DHT22;8550;52.596;13.320;2024-03-22T19:45:55;10.80;99.90
16867;DHT22;8550;52.596;13.320;2024-03-22T19:51:00;10.80;99.90
16867;DHT22;8550;52.596;13.320;2024-03-22T19:56:01;10.80;99.90
16867;DHT22;8550;52.596;13.320;2024-03-22T20:01:02;10.80;99.90
16867;DHT22;8550;52.596;13.320;2024-03-22T20:06:03;10.80;99.90
16867;DHT22;8550;52.596;13.320;2024-03-22T20:11:03;10.80;99.90
16867;DHT22;8550;52.596;13.320;2024-03-22T20:16:04;10.80;99.90
16867;DHT22;8550;52.596;13.320;2024-03-22T20:21:05;10.80;99.90
16867;DHT22;8550;52.596;13.320;2024-03-22T20:26:06;10.70;99.90
16867;DHT22;8550;52.596;13.320;2024-03-22T20:31:06;10.70;99.90
